TAP23PN LPPT-LPLA
Flight info
| Callsign | TAP23PN |
|---|---|
| Flight time | N/A |
| Altitude | 38000 |
| Route | ZIFOG DCT GUNTI/M078F380 T25 LENSI DCT BAVAS/M071F280 H121 LM |
| Aircraft | A21N/M-SADE1E2E3FGHIJ1J3J4J7M3P2RWXYZ/LB1D1 |
Departure
| Time | 2026-05-08 10:19 |
|---|---|
| Airport | Lisbon Humberto Delgado Airport (LPPT) |
Arrival
| Time | N/A |
|---|---|
| Airport | Lajes Airport (LPLA) |
| Time | Latitude | Longitude | Altitude | Speed | Heading |
|---|---|---|---|---|---|
| 2026-05-08 09:50 | 38.76934 | -9.13086 | 360 ft | 0 kts | 78° |
| 2026-05-08 10:09 | 38.76931 | -9.13108 | 352 ft | 4 kts | 80° |
| 2026-05-08 10:09 | 38.76925 | -9.13139 | 352 ft | 4 kts | 56° |
| 2026-05-08 10:10 | 38.76916 | -9.13149 | 354 ft | 1 kts | 348° |
| 2026-05-08 10:10 | 38.76915 | -9.13149 | 357 ft | 0 kts | 348° |
| 2026-05-08 10:13 | 38.76919 | -9.13149 | 352 ft | 2 kts | 348° |
| 2026-05-08 10:13 | 38.76954 | -9.13159 | 352 ft | 8 kts | 348° |
| 2026-05-08 10:13 | 38.77032 | -9.13180 | 352 ft | 14 kts | 348° |
| 2026-05-08 10:14 | 38.77149 | -9.13211 | 352 ft | 20 kts | 348° |
| 2026-05-08 10:14 | 38.77302 | -9.13252 | 352 ft | 25 kts | 348° |
| 2026-05-08 10:14 | 38.77477 | -9.13294 | 352 ft | 27 kts | 349° |
| 2026-05-08 10:14 | 38.77665 | -9.13330 | 352 ft | 29 kts | 357° |
| 2026-05-08 10:15 | 38.77867 | -9.13375 | 352 ft | 30 kts | 348° |
| 2026-05-08 10:15 | 38.78080 | -9.13430 | 352 ft | 32 kts | 348° |
| 2026-05-08 10:15 | 38.78305 | -9.13492 | 354 ft | 34 kts | 347° |
| 2026-05-08 10:15 | 38.78532 | -9.13553 | 351 ft | 27 kts | 349° |
| 2026-05-08 10:16 | 38.78717 | -9.13527 | 359 ft | 29 kts | 22° |
| 2026-05-08 10:16 | 38.78908 | -9.13428 | 352 ft | 31 kts | 22° |
| 2026-05-08 10:16 | 38.79111 | -9.13319 | 356 ft | 32 kts | 23° |
| 2026-05-08 10:16 | 38.79324 | -9.13201 | 357 ft | 34 kts | 23° |
| 2026-05-08 10:17 | 38.79544 | -9.13084 | 358 ft | 31 kts | 22° |
| 2026-05-08 10:17 | 38.79734 | -9.12980 | 352 ft | 21 kts | 26° |
| 2026-05-08 10:17 | 38.79745 | -9.12814 | 355 ft | 23 kts | 117° |
| 2026-05-08 10:17 | 38.79687 | -9.12755 | 356 ft | 12 kts | 205° |
| 2026-05-08 10:18 | 38.79547 | -9.12833 | 359 ft | 50 kts | 202° |
| 2026-05-08 10:18 | 38.78980 | -9.13139 | 351 ft | 122 kts | 203° |
| 2026-05-08 10:18 | 38.78033 | -9.13647 | 367 ft | 172 kts | 202° |
| 2026-05-08 10:18 | 38.76903 | -9.14275 | 914 ft | 178 kts | 202° |
| 2026-05-08 10:19 | 38.75754 | -9.14889 | 1687 ft | 181 kts | 201° |
| 2026-05-08 10:19 | 38.74554 | -9.15519 | 2319 ft | 193 kts | 201° |
| 2026-05-08 10:19 | 38.73218 | -9.16231 | 2882 ft | 224 kts | 201° |
| 2026-05-08 10:20 | 38.70056 | -9.17914 | 4585 ft | 258 kts | 202° |
| 2026-05-08 10:20 | 38.68400 | -9.18802 | 5656 ft | 262 kts | 203° |
| 2026-05-08 10:20 | 38.66806 | -9.19954 | 6730 ft | 266 kts | 219° |
| 2026-05-08 10:20 | 38.65660 | -9.21815 | 7767 ft | 271 kts | 244° |
| 2026-05-08 10:21 | 38.65239 | -9.24179 | 8798 ft | 278 kts | 268° |
| 2026-05-08 10:21 | 38.65628 | -9.26623 | 9833 ft | 286 kts | 289° |
| 2026-05-08 10:21 | 38.66425 | -9.29041 | 10526 ft | 307 kts | 292° |
| 2026-05-08 10:21 | 38.67333 | -9.31648 | 10988 ft | 332 kts | 292° |
| 2026-05-08 10:22 | 38.68094 | -9.34527 | 11534 ft | 349 kts | 279° |
| 2026-05-08 10:22 | 38.68295 | -9.37649 | 12352 ft | 355 kts | 270° |
| 2026-05-08 10:22 | 38.68340 | -9.40791 | 13241 ft | 359 kts | 269° |
| 2026-05-08 10:22 | 38.68372 | -9.44010 | 14112 ft | 363 kts | 270° |
| 2026-05-08 10:23 | 38.68413 | -9.47270 | 14938 ft | 368 kts | 270° |
| 2026-05-08 10:23 | 38.68460 | -9.50565 | 15747 ft | 372 kts | 270° |
| 2026-05-08 10:23 | 38.68504 | -9.53889 | 16572 ft | 374 kts | 270° |
| 2026-05-08 10:23 | 38.68549 | -9.57225 | 17371 ft | 376 kts | 269° |
| 2026-05-08 10:24 | 38.68591 | -9.60545 | 18087 ft | 380 kts | 270° |
| 2026-05-08 10:24 | 38.68639 | -9.63938 | 18784 ft | 383 kts | 270° |
| 2026-05-08 10:24 | 38.68684 | -9.67365 | 19439 ft | 387 kts | 270° |
| 2026-05-08 10:24 | 38.68737 | -9.70837 | 20085 ft | 391 kts | 270° |
| 2026-05-08 10:25 | 38.68788 | -9.74334 | 20712 ft | 395 kts | 270° |
| 2026-05-08 10:25 | 38.68836 | -9.77875 | 21326 ft | 399 kts | 269° |
| 2026-05-08 10:25 | 38.68873 | -9.81440 | 21988 ft | 401 kts | 269° |
| 2026-05-08 10:25 | 38.68911 | -9.85027 | 22686 ft | 402 kts | 269° |
| 2026-05-08 10:26 | 38.68949 | -9.88583 | 23286 ft | 405 kts | 269° |
| 2026-05-08 10:26 | 38.68992 | -9.92203 | 23862 ft | 408 kts | 269° |
| 2026-05-08 10:26 | 38.69039 | -9.95858 | 24420 ft | 411 kts | 269° |
| 2026-05-08 10:26 | 38.69083 | -9.99537 | 24953 ft | 415 kts | 269° |
| 2026-05-08 10:27 | 38.69126 | -10.03255 | 25472 ft | 418 kts | 269° |
| 2026-05-08 10:27 | 38.69162 | -10.07000 | 25983 ft | 422 kts | 269° |
| 2026-05-08 10:27 | 38.69199 | -10.10768 | 26478 ft | 425 kts | 269° |
| 2026-05-08 10:27 | 38.69236 | -10.14518 | 26949 ft | 428 kts | 269° |
| 2026-05-08 10:28 | 38.69271 | -10.18339 | 27439 ft | 430 kts | 269° |
| 2026-05-08 10:28 | 38.69311 | -10.22181 | 27972 ft | 430 kts | 269° |
| 2026-05-08 10:28 | 38.69343 | -10.26028 | 28467 ft | 431 kts | 268° |
| 2026-05-08 10:28 | 38.69371 | -10.29876 | 28919 ft | 432 kts | 269° |
| 2026-05-08 10:29 | 38.69405 | -10.33682 | 29441 ft | 431 kts | 268° |
| 2026-05-08 10:29 | 38.69433 | -10.37518 | 29964 ft | 430 kts | 268° |
| 2026-05-08 10:29 | 38.69465 | -10.41338 | 30476 ft | 429 kts | 268° |
| 2026-05-08 10:29 | 38.69486 | -10.43874 | 30809 ft | 428 kts | 268° |
| 2026-05-08 10:30 | 38.69522 | -10.48931 | 31448 ft | 427 kts | 268° |
| 2026-05-08 10:30 | 38.69540 | -10.51509 | 31762 ft | 426 kts | 268° |
| 2026-05-08 10:30 | 38.69564 | -10.55269 | 32225 ft | 425 kts | 268° |
| 2026-05-08 10:30 | 38.69583 | -10.59054 | 32557 ft | 427 kts | 268° |
| 2026-05-08 10:31 | 38.69607 | -10.62876 | 32900 ft | 429 kts | 268° |
| 2026-05-08 10:31 | 38.69655 | -10.66693 | 33306 ft | 429 kts | 270° |
| 2026-05-08 10:31 | 38.69923 | -10.70500 | 33708 ft | 429 kts | 274° |
| 2026-05-08 10:31 | 38.70255 | -10.74250 | 34101 ft | 428 kts | 274° |
| 2026-05-08 10:32 | 38.70598 | -10.78039 | 34443 ft | 428 kts | 274° |
| 2026-05-08 10:32 | 38.70933 | -10.81838 | 34694 ft | 431 kts | 276° |
| 2026-05-08 10:32 | 38.71273 | -10.85686 | 34819 ft | 437 kts | 276° |
| 2026-05-08 10:32 | 38.71616 | -10.89597 | 34927 ft | 444 kts | 276° |
| 2026-05-08 10:33 | 38.71958 | -10.93515 | 39831 ft | 435 kts | 272° |
| 2026-05-08 10:33 | 38.72288 | -10.97336 | 35413 ft | 428 kts | 272° |
| 2026-05-08 10:33 | 38.72607 | -11.01047 | 35847 ft | 423 kts | 272° |
| 2026-05-08 10:33 | 38.72929 | -11.04794 | 36173 ft | 422 kts | 273° |
| 2026-05-08 10:34 | 38.73243 | -11.08565 | 36328 ft | 425 kts | 273° |
| 2026-05-08 10:34 | 38.73561 | -11.12360 | 36442 ft | 430 kts | 274° |
| 2026-05-08 10:34 | 38.73891 | -11.16171 | 36644 ft | 431 kts | 274° |
| 2026-05-08 10:34 | 38.74209 | -11.19950 | 36945 ft | 430 kts | 274° |
| 2026-05-08 10:35 | 38.74525 | -11.23747 | 37272 ft | 428 kts | 274° |
| 2026-05-08 10:35 | 38.74842 | -11.27533 | 37584 ft | 425 kts | 274° |
| 2026-05-08 10:35 | 38.75158 | -11.31297 | 37797 ft | 425 kts | 274° |
| 2026-05-08 10:35 | 38.75472 | -11.35067 | 37925 ft | 427 kts | 274° |
| 2026-05-08 10:36 | 38.75789 | -11.38854 | 37933 ft | 427 kts | 274° |
| 2026-05-08 10:36 | 38.76420 | -11.46438 | 37907 ft | 427 kts | 274° |
| 2026-05-08 10:37 | 38.77030 | -11.53971 | 37902 ft | 427 kts | 274° |
| 2026-05-08 10:37 | 38.77640 | -11.61518 | 37916 ft | 431 kts | 276° |
| 2026-05-08 10:38 | 38.78254 | -11.69243 | 37992 ft | 442 kts | 276° |
| 2026-05-08 10:38 | 38.78882 | -11.77136 | 38005 ft | 445 kts | 275° |
| 2026-05-08 10:39 | 38.79496 | -11.85026 | 37982 ft | 435 kts | 273° |
| 2026-05-08 10:39 | 38.80085 | -11.92676 | 37935 ft | 429 kts | 273° |
| 2026-05-08 10:40 | 38.80689 | -12.00226 | 37913 ft | 427 kts | 273° |
| 2026-05-08 10:40 | 38.81275 | -12.07813 | 37911 ft | 427 kts | 273° |
| 2026-05-08 10:41 | 38.81857 | -12.15396 | 37911 ft | 428 kts | 273° |
| 2026-05-08 10:41 | 38.82432 | -12.22945 | 37909 ft | 428 kts | 273° |
| 2026-05-08 10:42 | 38.82994 | -12.30566 | 37910 ft | 428 kts | 273° |
| 2026-05-08 10:42 | 38.83564 | -12.38177 | 37911 ft | 429 kts | 273° |
| 2026-05-08 10:43 | 38.84136 | -12.45765 | 37910 ft | 429 kts | 273° |
| 2026-05-08 10:43 | 38.84683 | -12.53371 | 37910 ft | 429 kts | 273° |
| 2026-05-08 10:44 | 38.85207 | -12.61011 | 37911 ft | 429 kts | 272° |
| 2026-05-08 10:44 | 38.85733 | -12.68617 | 37910 ft | 429 kts | 272° |
| 2026-05-08 10:45 | 38.86260 | -12.76228 | 37911 ft | 430 kts | 273° |
| 2026-05-08 10:45 | 38.86840 | -12.83875 | 37910 ft | 430 kts | 273° |
| 2026-05-08 10:46 | 38.87386 | -12.91482 | 37909 ft | 430 kts | 273° |
| 2026-05-08 10:46 | 38.87914 | -12.99159 | 37910 ft | 430 kts | 273° |
| 2026-05-08 10:47 | 38.88444 | -13.06776 | 37909 ft | 430 kts | 272° |
| 2026-05-08 10:47 | 38.88967 | -13.14455 | 37909 ft | 430 kts | 272° |
| 2026-05-08 10:48 | 38.89460 | -13.21856 | 37910 ft | 430 kts | 272° |
| 2026-05-08 10:48 | 38.89960 | -13.29535 | 37910 ft | 431 kts | 272° |
| 2026-05-08 10:49 | 38.90476 | -13.37204 | 37909 ft | 431 kts | 272° |
| 2026-05-08 10:49 | 38.90973 | -13.44832 | 37910 ft | 431 kts | 272° |
| 2026-05-08 10:50 | 38.91469 | -13.52525 | 37909 ft | 431 kts | 272° |
| 2026-05-08 10:50 | 38.91919 | -13.60157 | 37910 ft | 431 kts | 272° |
| 2026-05-08 10:51 | 38.92389 | -13.67843 | 37910 ft | 431 kts | 272° |
| 2026-05-08 10:51 | 38.92871 | -13.75548 | 37909 ft | 431 kts | 272° |
| 2026-05-08 10:52 | 38.93344 | -13.83191 | 37911 ft | 431 kts | 272° |
| 2026-05-08 10:52 | 38.93825 | -13.90889 | 37910 ft | 431 kts | 272° |
| 2026-05-08 10:53 | 38.94291 | -13.98538 | 37910 ft | 431 kts | 272° |
| 2026-05-08 10:53 | 38.94746 | -14.06248 | 37910 ft | 433 kts | 272° |
| 2026-05-08 10:54 | 38.95190 | -14.13933 | 37911 ft | 434 kts | 272° |
| 2026-05-08 10:54 | 38.95637 | -14.21674 | 37911 ft | 434 kts | 272° |
| 2026-05-08 10:55 | 38.96081 | -14.29420 | 37909 ft | 434 kts | 272° |
| 2026-05-08 10:55 | 38.96528 | -14.37152 | 37910 ft | 434 kts | 272° |
| 2026-05-08 10:56 | 38.97012 | -14.44853 | 37911 ft | 434 kts | 272° |
| 2026-05-08 10:56 | 38.97457 | -14.52607 | 37911 ft | 434 kts | 272° |
| 2026-05-08 10:57 | 38.97874 | -14.60318 | 37911 ft | 435 kts | 272° |
| 2026-05-08 10:57 | 38.98504 | -14.71935 | 37911 ft | 435 kts | 272° |
| 2026-05-08 10:58 | 38.98927 | -14.79717 | 37911 ft | 435 kts | 272° |
| 2026-05-08 10:58 | 38.99333 | -14.87451 | 37910 ft | 435 kts | 272° |
| 2026-05-08 10:59 | 38.99746 | -14.95234 | 37911 ft | 436 kts | 272° |
| 2026-05-08 10:59 | 39.00055 | -15.03024 | 37909 ft | 435 kts | 270° |
| 2026-05-08 11:00 | 39.00198 | -15.10781 | 37911 ft | 436 kts | 269° |
| 2026-05-08 11:00 | 39.00341 | -15.18595 | 37909 ft | 436 kts | 270° |
| 2026-05-08 11:01 | 39.00488 | -15.26359 | 37910 ft | 437 kts | 270° |
| 2026-05-08 11:01 | 39.00651 | -15.34196 | 37910 ft | 437 kts | 270° |
| 2026-05-08 11:02 | 39.00860 | -15.45893 | 37910 ft | 437 kts | 270° |
| 2026-05-08 11:03 | 39.00995 | -15.53726 | 37910 ft | 438 kts | 270° |
| 2026-05-08 11:03 | 39.01132 | -15.61573 | 37909 ft | 438 kts | 270° |
| 2026-05-08 11:04 | 39.01240 | -15.69359 | 37910 ft | 438 kts | 269° |
| 2026-05-08 11:04 | 39.01362 | -15.77219 | 37909 ft | 438 kts | 269° |
| 2026-05-08 11:05 | 39.01465 | -15.85021 | 37910 ft | 438 kts | 269° |
| 2026-05-08 11:05 | 39.01572 | -15.92868 | 37910 ft | 438 kts | 269° |
| 2026-05-08 11:06 | 39.01683 | -16.00669 | 37910 ft | 438 kts | 270° |
| 2026-05-08 11:06 | 39.01775 | -16.08549 | 37911 ft | 440 kts | 269° |
| 2026-05-08 11:07 | 39.01860 | -16.16398 | 37910 ft | 441 kts | 269° |
| 2026-05-08 11:07 | 39.01943 | -16.24290 | 37910 ft | 441 kts | 269° |
| 2026-05-08 11:08 | 39.02021 | -16.32185 | 37910 ft | 440 kts | 269° |
| 2026-05-08 11:08 | 39.02088 | -16.40042 | 37909 ft | 441 kts | 269° |
| 2026-05-08 11:09 | 39.02159 | -16.47941 | 37901 ft | 441 kts | 269° |
| 2026-05-08 11:09 | 39.02220 | -16.55795 | 37899 ft | 441 kts | 269° |
| 2026-05-08 11:10 | 39.02285 | -16.63686 | 37896 ft | 441 kts | 269° |
| 2026-05-08 11:10 | 39.02339 | -16.71595 | 37898 ft | 441 kts | 269° |
| 2026-05-08 11:11 | 39.02389 | -16.79442 | 37901 ft | 441 kts | 269° |
| 2026-05-08 11:11 | 39.02436 | -16.87345 | 37922 ft | 441 kts | 269° |
| 2026-05-08 11:12 | 39.02486 | -16.95255 | 37930 ft | 442 kts | 269° |
| 2026-05-08 11:12 | 39.02516 | -17.03167 | 37930 ft | 442 kts | 269° |
| 2026-05-08 11:13 | 39.02540 | -17.11043 | 37931 ft | 442 kts | 269° |
| 2026-05-08 11:13 | 39.02557 | -17.18964 | 37928 ft | 442 kts | 269° |
| 2026-05-08 11:14 | 39.02575 | -17.26892 | 37929 ft | 442 kts | 269° |
| 2026-05-08 11:14 | 39.02591 | -17.34768 | 37931 ft | 443 kts | 269° |
| 2026-05-08 11:15 | 39.02598 | -17.42700 | 37929 ft | 443 kts | 269° |
| 2026-05-08 11:15 | 39.02603 | -17.50640 | 37930 ft | 443 kts | 269° |
| 2026-05-08 11:16 | 39.02604 | -17.58528 | 37927 ft | 443 kts | 269° |
| 2026-05-08 11:16 | 39.02597 | -17.65141 | 37930 ft | 443 kts | 269° |
| 2026-05-08 11:17 | 39.02602 | -17.73088 | 37931 ft | 443 kts | 269° |
| 2026-05-08 11:17 | 39.02570 | -17.81032 | 37937 ft | 444 kts | 269° |
| 2026-05-08 11:18 | 39.02535 | -17.88930 | 37940 ft | 444 kts | 269° |
| 2026-05-08 11:18 | 39.02502 | -17.96874 | 37939 ft | 444 kts | 269° |
| 2026-05-08 11:19 | 39.02469 | -18.04834 | 37940 ft | 444 kts | 269° |
| 2026-05-08 11:19 | 39.02448 | -18.12799 | 37947 ft | 445 kts | 270° |
| 2026-05-08 11:20 | 39.02435 | -18.20719 | 37946 ft | 445 kts | 269° |
| 2026-05-08 11:20 | 39.02385 | -18.28681 | 37956 ft | 445 kts | 269° |
| 2026-05-08 11:21 | 39.02326 | -18.36607 | 37956 ft | 445 kts | 269° |
| 2026-05-08 11:21 | 39.02262 | -18.44575 | 37948 ft | 445 kts | 269° |
| 2026-05-08 11:22 | 39.02206 | -18.52557 | 37954 ft | 445 kts | 269° |
| 2026-05-08 11:22 | 39.02137 | -18.60518 | 37955 ft | 445 kts | 269° |
| 2026-05-08 11:23 | 39.02053 | -18.68431 | 37953 ft | 445 kts | 269° |
| 2026-05-08 11:23 | 39.01968 | -18.76403 | 37954 ft | 445 kts | 269° |
| 2026-05-08 11:24 | 39.01882 | -18.84369 | 37948 ft | 445 kts | 269° |
| 2026-05-08 11:24 | 39.01784 | -18.92279 | 37950 ft | 445 kts | 269° |
| 2026-05-08 11:25 | 39.01683 | -19.00252 | 37956 ft | 445 kts | 269° |
| 2026-05-08 11:25 | 39.01582 | -19.08221 | 37956 ft | 445 kts | 269° |
| 2026-05-08 11:26 | 39.01472 | -19.16150 | 37963 ft | 445 kts | 269° |
| 2026-05-08 11:26 | 39.01350 | -19.24124 | 37968 ft | 445 kts | 269° |
| 2026-05-08 11:27 | 39.01214 | -19.32041 | 37969 ft | 445 kts | 269° |
| 2026-05-08 11:27 | 39.01091 | -19.40009 | 37960 ft | 445 kts | 269° |
| 2026-05-08 11:28 | 39.00970 | -19.47918 | 37961 ft | 445 kts | 269° |
| 2026-05-08 11:28 | 39.00838 | -19.55879 | 37961 ft | 445 kts | 269° |
| 2026-05-08 11:29 | 39.00687 | -19.63847 | 37952 ft | 445 kts | 269° |
| 2026-05-08 11:29 | 39.00532 | -19.71806 | 37954 ft | 445 kts | 269° |
| 2026-05-08 11:30 | 39.00369 | -19.79744 | 37966 ft | 445 kts | 269° |
| 2026-05-08 11:30 | 39.00206 | -19.87710 | 37964 ft | 445 kts | 269° |
| 2026-05-08 11:31 | 39.00042 | -19.95667 | 37959 ft | 445 kts | 269° |
| 2026-05-08 11:31 | 39.00003 | -20.03593 | 37957 ft | 445 kts | 271° |
| 2026-05-08 11:32 | 39.00123 | -20.11558 | 37966 ft | 445 kts | 272° |
| 2026-05-08 11:32 | 39.00245 | -20.19516 | 37970 ft | 445 kts | 272° |
| 2026-05-08 11:33 | 39.00348 | -20.27425 | 37974 ft | 445 kts | 272° |
| 2026-05-08 11:33 | 39.00452 | -20.35412 | 37978 ft | 445 kts | 272° |
| 2026-05-08 11:34 | 39.00553 | -20.43320 | 37974 ft | 445 kts | 271° |
| 2026-05-08 11:34 | 39.00646 | -20.51293 | 37963 ft | 444 kts | 272° |
| 2026-05-08 11:35 | 39.00744 | -20.59195 | 37974 ft | 444 kts | 272° |
| 2026-05-08 11:35 | 39.00830 | -20.67160 | 37970 ft | 445 kts | 272° |
| 2026-05-08 11:36 | 39.00908 | -20.75107 | 37975 ft | 444 kts | 271° |
| 2026-05-08 11:36 | 39.00974 | -20.83058 | 37977 ft | 444 kts | 271° |
| 2026-05-08 11:37 | 39.01038 | -20.90960 | 37974 ft | 444 kts | 272° |
| 2026-05-08 11:37 | 39.01104 | -20.98911 | 37979 ft | 444 kts | 271° |
| 2026-05-08 11:38 | 39.01169 | -21.06882 | 37981 ft | 444 kts | 272° |
| 2026-05-08 11:38 | 39.01227 | -21.14776 | 37980 ft | 444 kts | 271° |
| 2026-05-08 11:39 | 39.01273 | -21.22741 | 37980 ft | 444 kts | 271° |
| 2026-05-08 11:39 | 39.01306 | -21.30645 | 37979 ft | 444 kts | 271° |
| 2026-05-08 11:40 | 39.01342 | -21.38594 | 37976 ft | 443 kts | 271° |
| 2026-05-08 11:40 | 39.01370 | -21.46538 | 37974 ft | 444 kts | 271° |
| 2026-05-08 11:41 | 39.01390 | -21.54427 | 37970 ft | 443 kts | 271° |
| 2026-05-08 11:41 | 39.01408 | -21.62373 | 37982 ft | 444 kts | 271° |
| 2026-05-08 11:42 | 39.01424 | -21.70325 | 37982 ft | 444 kts | 271° |
| 2026-05-08 11:42 | 39.01432 | -21.78225 | 37981 ft | 444 kts | 271° |
| 2026-05-08 11:42 | 39.01430 | -21.82181 | 37963 ft | 432 kts | 271° |
| 2026-05-08 11:43 | 39.01427 | -21.85969 | 37945 ft | 414 kts | 271° |
| 2026-05-08 11:43 | 39.01418 | -21.89582 | 37944 ft | 395 kts | 271° |
| 2026-05-08 11:43 | 39.01411 | -21.92991 | 37940 ft | 376 kts | 272° |
| 2026-05-08 11:43 | 39.01414 | -21.96303 | 37896 ft | 358 kts | 272° |
| 2026-05-08 11:44 | 39.01416 | -21.99495 | 36998 ft | 365 kts | 272° |
| 2026-05-08 11:44 | 39.01417 | -22.02800 | 36109 ft | 373 kts | 272° |
| 2026-05-08 11:44 | 39.01417 | -22.06147 | 35281 ft | 376 kts | 273° |
| 2026-05-08 11:44 | 39.01415 | -22.09527 | 34455 ft | 380 kts | 273° |
| 2026-05-08 11:45 | 39.01412 | -22.12951 | 33674 ft | 382 kts | 273° |
| 2026-05-08 11:45 | 39.01409 | -22.16373 | 32918 ft | 382 kts | 273° |
| 2026-05-08 11:45 | 39.01406 | -22.19804 | 32190 ft | 384 kts | 273° |
| 2026-05-08 11:45 | 39.01402 | -22.23231 | 31498 ft | 382 kts | 273° |
| 2026-05-08 11:46 | 39.01398 | -22.26617 | 30830 ft | 382 kts | 273° |
| 2026-05-08 11:46 | 39.01392 | -22.30014 | 30176 ft | 380 kts | 273° |
| 2026-05-08 11:46 | 39.01385 | -22.33411 | 29527 ft | 377 kts | 274° |
| 2026-05-08 11:46 | 39.01377 | -22.36794 | 28887 ft | 377 kts | 273° |
| 2026-05-08 11:47 | 39.01369 | -22.40156 | 28253 ft | 373 kts | 273° |
| 2026-05-08 11:47 | 39.01361 | -22.43453 | 27633 ft | 373 kts | 273° |
| 2026-05-08 11:47 | 39.01353 | -22.46779 | 27016 ft | 370 kts | 273° |
| 2026-05-08 11:47 | 39.01343 | -22.50081 | 26401 ft | 366 kts | 273° |
| 2026-05-08 11:48 | 39.01333 | -22.53364 | 25802 ft | 367 kts | 273° |
| 2026-05-08 11:48 | 39.01324 | -22.56636 | 25203 ft | 363 kts | 273° |
| 2026-05-08 11:48 | 39.01314 | -22.59843 | 24620 ft | 360 kts | 272° |
| 2026-05-08 11:48 | 39.01303 | -22.63070 | 24040 ft | 360 kts | 272° |
| 2026-05-08 11:49 | 39.01293 | -22.66261 | 23462 ft | 355 kts | 272° |
| 2026-05-08 11:49 | 39.01281 | -22.69440 | 22880 ft | 355 kts | 272° |
| 2026-05-08 11:49 | 39.01268 | -22.72593 | 22312 ft | 352 kts | 272° |
| 2026-05-08 11:49 | 39.01253 | -22.75727 | 21746 ft | 347 kts | 272° |
| 2026-05-08 11:50 | 39.01238 | -22.78833 | 21187 ft | 348 kts | 272° |
| 2026-05-08 11:50 | 39.01222 | -22.81931 | 20632 ft | 344 kts | 272° |
| 2026-05-08 11:50 | 39.01206 | -22.84959 | 20096 ft | 340 kts | 272° |
| 2026-05-08 11:50 | 39.01188 | -22.88007 | 19555 ft | 341 kts | 272° |
| 2026-05-08 11:51 | 39.01170 | -22.91049 | 19010 ft | 337 kts | 272° |
| 2026-05-08 11:51 | 39.01151 | -22.94062 | 18483 ft | 333 kts | 272° |
| 2026-05-08 11:51 | 39.01131 | -22.97025 | 17942 ft | 336 kts | 272° |
| 2026-05-08 11:51 | 39.01111 | -22.99999 | 17420 ft | 332 kts | 272° |
| 2026-05-08 11:52 | 39.01099 | -23.01963 | 17087 ft | 329 kts | 272° |